Time;durP1;ratioP1;P1;durP2;ratioP2;P2;SDS_P1;SDS_P2;PMS_P1;PMS_P2;Temp;Humidity;BMP_temperature;BMP_pressure;BME280_temperature;BME280_humidity;BME280_pressure;Samples;Min_cycle;Max_cycle;Signal;HPM_P1;HPM_P2
2023/08/12 00:00:23;;;;;;;3.40;3.10;;;;;;;;;;5094936;28;20016;-29
2023/08/12 00:02:49;;;;;;;3.47;3.28;;;;;;;;;;5094204;28;20028;-31
2023/08/12 00:05:15;;;;;;;2.38;2.17;;;;;;;;;;5095190;28;20028;-33
2023/08/12 00:07:42;;;;;;;2.90;2.70;;;;;;;;;;5094768;28;20024;-31
2023/08/12 00:10:08;;;;;;;3.22;3.03;;;;;;;;;;5095107;28;20027;-30
2023/08/12 00:12:38;;;;;;;2.85;2.60;;;;;;;;;;5095567;28;20023;-31
2023/08/12 00:15:06;;;;;;;3.00;2.80;;;;;;;;;;5094776;28;20020;-29
2023/08/12 00:17:32;;;;;;;4.00;2.97;;;;;;;;;;5094708;28;20028;-31
2023/08/12 00:19:59;;;;;;;2.97;2.70;;;;;;;;;;5094989;28;20443;-33
2023/08/12 00:22:25;;;;;;;3.58;3.28;;;;;;;;;;5094612;28;20032;-31
2023/08/12 00:24:52;;;;;;;3.35;3.05;;;;;;;;;;5094724;28;20037;-31
2023/08/12 00:27:18;;;;;;;4.10;2.50;;;;;;;;;;5094613;28;20397;-30
2023/08/12 00:29:44;;;;;;;3.00;2.80;;;;;;;;;;5094647;28;20451;-31
2023/08/12 00:32:11;;;;;;;2.92;2.72;;;;;;;;;;5094758;28;20024;-31
2023/08/12 00:34:37;;;;;;;2.92;2.40;;;;;;;;;;5094856;28;20016;-29
2023/08/12 00:37:03;;;;;;;3.10;2.75;;;;;;;;;;5094563;28;20032;-31
2023/08/12 00:39:29;;;;;;;4.18;2.90;;;;;;;;;;5095074;28;20032;-30
2023/08/12 00:41:55;;;;;;;2.75;2.55;;;;;;;;;;5094965;28;20028;-30
2023/08/12 00:44:21;;;;;;;3.13;2.15;;;;;;;;;;5093538;28;20494;-30
2023/08/12 00:46:48;;;;;;;3.58;2.67;;;;;;;;;;5094684;28;20370;-29
2023/08/12 00:49:14;;;;;;;3.08;2.50;;;;;;;;;;5094731;28;20030;-28
2023/08/12 00:51:41;;;;;;;2.75;2.65;;;;;;;;;;5094422;28;20451;-31
2023/08/12 00:54:07;;;;;;;3.92;2.90;;;;;;;;;;5094616;28;20035;-28
2023/08/12 00:56:34;;;;;;;2.40;2.25;;;;;;;;;;5094443;28;20017;-31
2023/08/12 00:59:00;;;;;;;2.65;2.45;;;;;;;;;;5094410;28;20107;-29
2023/08/12 01:01:27;;;;;;;2.83;2.63;;;;;;;;;;5094884;28;20020;-33
2023/08/12 01:03:53;;;;;;;3.60;3.30;;;;;;;;;;5093998;28;20051;-30
2023/08/12 01:06:19;;;;;;;2.88;2.67;;;;;;;;;;5094575;28;20096;-31
2023/08/12 01:08:45;;;;;;;6.43;2.40;;;;;;;;;;5094215;28;20024;-30
2023/08/12 01:11:21;;;;;;;4.18;2.88;;;;;;;;;;5094272;28;20030;-27
2023/08/12 01:13:54;;;;;;;3.22;2.92;;;;;;;;;;5095722;28;20028;-31
2023/08/12 01:16:21;;;;;;;2.38;2.17;;;;;;;;;;5098305;28;20028;-31
2023/08/12 01:18:48;;;;;;;2.30;2.20;;;;;;;;;;5097954;28;20032;-31
2023/08/12 01:21:16;;;;;;;2.80;2.60;;;;;;;;;;5097926;28;20077;-26
2023/08/12 01:23:43;;;;;;;3.08;2.75;;;;;;;;;;5097826;28;20024;-31
2023/08/12 01:26:09;;;;;;;3.10;2.80;;;;;;;;;;5097829;28;20085;-29
2023/08/12 01:28:35;;;;;;;3.83;3.53;;;;;;;;;;5097951;28;20048;-29
2023/08/12 01:31:16;;;;;;;3.58;2.95;;;;;;;;;;5098007;28;20042;-30
2023/08/12 01:33:42;;;;;;;;;;;;;;;;;;5098185;28;20411;-29
2023/08/12 01:36:15;;;;;;;2.70;2.55;;;;;;;;;;5097649;28;19935;-29
2023/08/12 01:38:41;;;;;;;2.90;2.67;;;;;;;;;;5097827;28;20028;-29
2023/08/12 01:41:10;;;;;;;2.95;2.65;;;;;;;;;;5098123;28;20020;-29
2023/08/12 01:43:36;;;;;;;2.25;2.05;;;;;;;;;;5097638;28;20035;-32
2023/08/12 01:46:02;;;;;;;2.35;2.20;;;;;;;;;;5097756;28;20058;-30
2023/08/12 01:48:28;;;;;;;2.88;2.67;;;;;;;;;;5097314;28;20115;-33
2023/08/12 01:50:54;;;;;;;4.50;3.90;;;;;;;;;;5097891;28;20024;-32
2023/08/12 01:53:21;;;;;;;2.88;2.67;;;;;;;;;;5097223;28;20053;-34
2023/08/12 01:55:48;;;;;;;2.83;2.63;;;;;;;;;;5097533;28;20044;-30
2023/08/12 01:58:14;;;;;;;2.38;2.17;;;;;;;;;;5097223;28;20032;-29
2023/08/12 02:00:40;;;;;;;2.50;2.28;;;;;;;;;;5097182;28;20020;-31
2023/08/12 02:03:06;;;;;;;2.47;2.28;;;;;;;;;;5096987;28;20040;-31
2023/08/12 02:05:33;;;;;;;2.42;2.25;;;;;;;;;;5097363;28;20046;-29
2023/08/12 02:07:59;;;;;;;3.67;3.15;;;;;;;;;;5097737;28;20055;-30
2023/08/12 02:10:25;;;;;;;2.50;2.30;;;;;;;;;;5096939;28;20024;-31
2023/08/12 02:12:51;;;;;;;2.75;2.60;;;;;;;;;;5097135;28;20032;-30
2023/08/12 02:15:17;;;;;;;3.25;2.50;;;;;;;;;;5096832;28;20374;-30
2023/08/12 02:17:44;;;;;;;2.30;2.20;;;;;;;;;;5097877;28;20023;-31
2023/08/12 02:20:10;;;;;;;2.80;2.60;;;;;;;;;;5096820;28;20024;-36
2023/08/12 02:22:36;;;;;;;2.25;2.15;;;;;;;;;;5096664;28;20379;-31
2023/08/12 02:25:02;;;;;;;2.67;2.47;;;;;;;;;;5096058;28;20064;-30
2023/08/12 02:27:28;;;;;;;2.53;2.42;;;;;;;;;;5096818;28;20107;-29
2023/08/12 02:29:54;;;;;;;2.95;2.10;;;;;;;;;;5096828;28;20027;-32
2023/08/12 02:32:21;;;;;;;2.90;2.53;;;;;;;;;;5096445;28;20099;-32
2023/08/12 02:34:47;;;;;;;2.63;2.42;;;;;;;;;;5096443;28;20028;-30
2023/08/12 02:37:13;;;;;;;3.20;2.90;;;;;;;;;;5096465;28;20042;-30
2023/08/12 02:39:39;;;;;;;2.15;2.05;;;;;;;;;;5095345;28;20028;-33
2023/08/12 02:42:05;;;;;;;2.95;2.35;;;;;;;;;;5096582;28;20049;-31
2023/08/12 02:44:31;;;;;;;2.95;2.75;;;;;;;;;;5096280;28;20063;-31
2023/08/12 02:46:59;;;;;;;2.80;2.60;;;;;;;;;;5096415;28;20048;-31
2023/08/12 02:49:25;;;;;;;2.10;2.00;;;;;;;;;;5096500;28;20020;-31
2023/08/12 02:51:51;;;;;;;2.35;2.25;;;;;;;;;;5096634;28;20028;-31
2023/08/12 02:54:17;;;;;;;2.30;2.20;;;;;;;;;;5096359;28;20028;-31
2023/08/12 02:56:44;;;;;;;2.55;2.25;;;;;;;;;;5096075;28;20095;-30
2023/08/12 02:59:10;;;;;;;2.58;2.38;;;;;;;;;;5096032;28;20024;-32
2023/08/12 03:01:36;;;;;;;2.65;2.45;;;;;;;;;;5095966;28;20020;-29
2023/08/12 03:04:02;;;;;;;2.53;2.33;;;;;;;;;;5095814;28;20055;-31
2023/08/12 03:06:28;;;;;;;2.22;2.10;;;;;;;;;;5096181;28;20088;-29
2023/08/12 03:08:54;;;;;;;2.58;2.38;;;;;;;;;;5095754;28;20070;-31
2023/08/12 03:11:21;;;;;;;2.17;2.08;;;;;;;;;;5095776;28;20026;-29
2023/08/12 03:13:47;;;;;;;2.17;2.05;;;;;;;;;;5095697;28;20062;-30
2023/08/12 03:16:14;;;;;;;2.60;2.50;;;;;;;;;;5095724;28;20099;-31
2023/08/12 03:18:40;;;;;;;3.13;2.92;;;;;;;;;;5095639;28;20103;-32
2023/08/12 03:21:09;;;;;;;2.78;2.55;;;;;;;;;;5095622;28;20037;-32
2023/08/12 03:23:38;;;;;;;3.25;2.95;;;;;;;;;;5095498;28;20024;-30
2023/08/12 03:26:05;;;;;;;2.55;2.35;;;;;;;;;;5095788;28;20328;-29
2023/08/12 03:28:31;;;;;;;2.45;2.30;;;;;;;;;;5096217;28;20035;-30
2023/08/12 03:30:57;;;;;;;2.22;2.13;;;;;;;;;;5095455;28;20085;-30
2023/08/12 03:33:24;;;;;;;2.22;2.03;;;;;;;;;;5095862;28;20035;-28
2023/08/12 03:35:50;;;;;;;2.83;2.63;;;;;;;;;;5095312;28;20016;-30
2023/08/12 03:38:16;;;;;;;2.38;2.28;;;;;;;;;;5094955;28;20035;-31
2023/08/12 03:40:43;;;;;;;2.42;2.33;;;;;;;;;;5096033;28;20032;-31
2023/08/12 03:43:09;;;;;;;2.53;2.33;;;;;;;;;;5095435;28;20365;-28
2023/08/12 03:45:42;;;;;;;2.47;2.28;;;;;;;;;;5095692;28;20394;-32
2023/08/12 03:48:08;;;;;;;3.55;2.22;;;;;;;;;;5095001;28;20020;-32
2023/08/12 03:50:35;;;;;;;2.50;2.38;;;;;;;;;;5095049;28;20488;-28
2023/08/12 03:53:01;;;;;;;2.08;1.98;;;;;;;;;;5095009;28;20027;-29
2023/08/12 03:55:27;;;;;;;1.90;1.70;;;;;;;;;;5095062;28;20095;-30
2023/08/12 03:57:53;;;;;;;2.38;2.17;;;;;;;;;;5095020;28;20024;-31
2023/08/12 04:00:20;;;;;;;2.33;2.13;;;;;;;;;;5094943;28;20020;-29
2023/08/12 04:02:46;;;;;;;1.70;1.60;;;;;;;;;;5094906;28;20036;-31
2023/08/12 04:05:12;;;;;;;1.98;1.88;;;;;;;;;;5094804;28;20054;-30
2023/08/12 04:07:38;;;;;;;2.58;2.38;;;;;;;;;;5095068;28;20112;-30
2023/08/12 04:10:04;;;;;;;2.40;2.20;;;;;;;;;;5094872;28;20031;-30
2023/08/12 04:12:31;;;;;;;2.28;2.17;;;;;;;;;;5094777;28;20421;-30
2023/08/12 04:14:57;;;;;;;2.50;2.38;;;;;;;;;;5095326;28;20436;-29
2023/08/12 04:17:23;;;;;;;2.22;2.13;;;;;;;;;;5094728;28;20363;-30
2023/08/12 04:19:49;;;;;;;2.50;2.30;;;;;;;;;;5094997;28;20105;-31
2023/08/12 04:22:16;;;;;;;2.63;2.53;;;;;;;;;;5094648;28;20449;-29
2023/08/12 04:24:42;;;;;;;2.65;2.45;;;;;;;;;;5094972;28;20101;-32
2023/08/12 04:27:09;;;;;;;2.10;2.00;;;;;;;;;;5094577;28;20035;-30
2023/08/12 04:29:35;;;;;;;2.22;2.13;;;;;;;;;;5094879;28;20035;-31
2023/08/12 04:32:01;;;;;;;2.50;2.38;;;;;;;;;;5095091;28;20166;-31
2023/08/12 04:34:27;;;;;;;3.13;2.92;;;;;;;;;;5094851;28;20024;-33
2023/08/12 04:36:54;;;;;;;2.65;2.45;;;;;;;;;;5094549;28;20447;-31
2023/08/12 04:39:20;;;;;;;2.22;1.85;;;;;;;;;;5094826;28;20024;-30
2023/08/12 04:41:46;;;;;;;2.58;2.40;;;;;;;;;;5094584;28;20107;-27
2023/08/12 04:44:12;;;;;;;2.63;2.42;;;;;;;;;;5094482;28;20024;-31
2023/08/12 04:46:38;;;;;;;2.50;2.30;;;;;;;;;;5094514;28;20426;-26
2023/08/12 04:49:04;;;;;;;2.10;2.00;;;;;;;;;;5096499;28;20028;-31
2023/08/12 04:51:31;;;;;;;2.72;2.53;;;;;;;;;;5098473;28;20024;-31
2023/08/12 04:53:57;;;;;;;2.15;2.05;;;;;;;;;;5098436;28;20043;-30
2023/08/12 04:56:24;;;;;;;3.15;2.33;;;;;;;;;;5098465;28;20024;-29
2023/08/12 04:58:50;;;;;;;2.17;2.05;;;;;;;;;;5098661;28;20024;-31
2023/08/12 05:01:16;;;;;;;2.50;2.30;;;;;;;;;;5098592;28;20372;-29
2023/08/12 05:03:42;;;;;;;2.22;2.03;;;;;;;;;;5098043;28;20047;-27
2023/08/12 05:06:08;;;;;;;2.15;2.05;;;;;;;;;;5098516;28;20024;-31
2023/08/12 05:08:34;;;;;;;1.80;1.70;;;;;;;;;;5098352;28;20093;-30
2023/08/12 05:11:00;;;;;;;2.15;2.05;;;;;;;;;;5098141;28;20023;-31
2023/08/12 05:13:28;;;;;;;2.00;1.90;;;;;;;;;;5098264;28;20036;-31
2023/08/12 05:15:54;;;;;;;2.17;1.98;;;;;;;;;;5098326;28;20043;-29
2023/08/12 05:18:23;;;;;;;3.60;2.22;;;;;;;;;;5098235;28;20035;-32
2023/08/12 05:20:49;;;;;;;2.15;2.05;;;;;;;;;;5098780;28;20032;-31
2023/08/12 05:23:16;;;;;;;3.13;2.85;;;;;;;;;;5097841;28;20028;-30
2023/08/12 05:25:42;;;;;;;2.05;1.95;;;;;;;;;;5097791;28;20057;-30
2023/08/12 05:28:08;;;;;;;2.08;1.90;;;;;;;;;;5097746;28;20051;-32
2023/08/12 05:30:34;;;;;;;2.20;2.10;;;;;;;;;;5098085;28;20024;-32
2023/08/12 05:33:00;;;;;;;2.80;2.53;;;;;;;;;;5097655;28;20038;-30
2023/08/12 05:35:27;;;;;;;2.28;2.05;;;;;;;;;;5097906;28;20031;-32
2023/08/12 05:37:53;;;;;;;2.53;2.30;;;;;;;;;;5097645;28;20043;-32
2023/08/12 05:40:19;;;;;;;2.67;2.47;;;;;;;;;;5097850;28;20028;-38
2023/08/12 05:42:45;;;;;;;2.70;2.58;;;;;;;;;;5097654;28;20039;-33
2023/08/12 05:45:11;;;;;;;2.30;2.20;;;;;;;;;;5097781;28;20028;-32
2023/08/12 05:47:37;;;;;;;2.17;1.98;;;;;;;;;;5096400;28;20038;-28
2023/08/12 05:50:04;;;;;;;2.58;2.38;;;;;;;;;;5097677;28;20046;-30
2023/08/12 05:52:30;;;;;;;2.63;2.22;;;;;;;;;;5097272;28;20020;-30
2023/08/12 05:54:56;;;;;;;2.28;2.17;;;;;;;;;;5097584;28;20405;-30
2023/08/12 05:57:22;;;;;;;2.00;1.77;;;;;;;;;;5097204;28;20036;-31
2023/08/12 05:59:48;;;;;;;2.45;2.35;;;;;;;;;;5096721;28;20333;-30
2023/08/12 06:02:14;;;;;;;2.38;2.28;;;;;;;;;;5096804;28;20028;-27
2023/08/12 06:04:40;;;;;;;1.98;1.88;;;;;;;;;;5097015;28;20044;-31
2023/08/12 06:07:06;;;;;;;2.03;1.92;;;;;;;;;;5097283;28;20032;-31
2023/08/12 06:09:33;;;;;;;2.05;1.85;;;;;;;;;;5096994;28;20027;-29
2023/08/12 06:11:59;;;;;;;2.10;2.00;;;;;;;;;;5096882;28;20024;-31
2023/08/12 06:14:25;;;;;;;1.88;1.77;;;;;;;;;;5097151;28;20028;-31
2023/08/12 06:16:51;;;;;;;2.40;2.30;;;;;;;;;;5096864;28;20031;-32
2023/08/12 06:19:17;;;;;;;2.20;2.10;;;;;;;;;;5096796;28;20103;-31
2023/08/12 06:21:43;;;;;;;2.63;2.53;;;;;;;;;;5097339;28;20433;-29
2023/08/12 06:24:09;;;;;;;1.77;1.67;;;;;;;;;;5095728;28;20463;-31
2023/08/12 06:26:35;;;;;;;2.67;2.47;;;;;;;;;;5096907;28;20398;-29
2023/08/12 06:29:01;;;;;;;1.98;1.88;;;;;;;;;;5096579;28;20028;-33
2023/08/12 06:31:27;;;;;;;2.50;2.30;;;;;;;;;;5096582;28;20027;-30
2023/08/12 06:33:54;;;;;;;1.65;1.55;;;;;;;;;;5096562;28;20095;-28
2023/08/12 06:36:20;;;;;;;2.10;2.00;;;;;;;;;;5096494;28;20047;-31
2023/08/12 06:38:46;;;;;;;2.08;1.98;;;;;;;;;;5096704;28;20346;-31
2023/08/12 06:41:12;;;;;;;1.65;1.55;;;;;;;;;;5096418;28;20038;-33
2023/08/12 06:43:38;;;;;;;1.83;1.73;;;;;;;;;;5096361;28;20047;-32
2023/08/12 06:46:04;;;;;;;2.42;1.85;;;;;;;;;;5096577;28;20108;-29
2023/08/12 06:48:30;;;;;;;2.17;2.08;;;;;;;;;;5096715;28;20506;-31
2023/08/12 06:50:57;;;;;;;2.10;2.00;;;;;;;;;;5096471;28;20034;-30
2023/08/12 06:53:23;;;;;;;1.92;1.83;;;;;;;;;;5096108;28;20095;-31
2023/08/12 06:55:49;;;;;;;1.85;1.75;;;;;;;;;;5096108;28;20024;-30
2023/08/12 06:58:15;;;;;;;2.35;1.83;;;;;;;;;;5096101;28;20023;-29
2023/08/12 07:00:42;;;;;;;2.15;1.98;;;;;;;;;;5096560;28;20558;-26
2023/08/12 07:03:08;;;;;;;2.28;2.17;;;;;;;;;;5095955;28;20032;-30
2023/08/12 07:05:34;;;;;;;2.17;2.08;;;;;;;;;;5095958;28;20027;-30
2023/08/12 07:08:00;;;;;;;1.83;1.70;;;;;;;;;;5096113;28;20437;-31
2023/08/12 07:10:26;;;;;;;1.95;1.85;;;;;;;;;;5096073;28;20021;-31
2023/08/12 07:12:52;;;;;;;2.35;2.15;;;;;;;;;;5095578;28;20020;-30
2023/08/12 07:15:18;;;;;;;2.08;1.88;;;;;;;;;;5095751;28;20016;-30
2023/08/12 07:17:44;;;;;;;1.88;1.77;;;;;;;;;;5095714;28;20032;-29
2023/08/12 07:20:11;;;;;;;1.80;1.70;;;;;;;;;;5095946;28;20031;-29
2023/08/12 07:22:37;;;;;;;1.73;1.63;;;;;;;;;;5096070;28;20032;-29
2023/08/12 07:25:03;;;;;;;2.08;1.98;;;;;;;;;;5096129;28;20031;-29
2023/08/12 07:27:29;;;;;;;1.90;1.80;;;;;;;;;;5095431;28;20028;-31
2023/08/12 07:29:56;;;;;;;3.40;2.45;;;;;;;;;;5095764;28;20090;-25
2023/08/12 07:32:22;;;;;;;2.08;1.98;;;;;;;;;;5095587;28;20035;-33
2023/08/12 07:34:48;;;;;;;2.08;1.88;;;;;;;;;;5095383;28;20439;-28
2023/08/12 07:37:14;;;;;;;2.47;2.28;;;;;;;;;;5095366;28;20050;-31
2023/08/12 07:39:40;;;;;;;2.05;1.67;;;;;;;;;;5095299;28;20034;-32
2023/08/12 07:42:06;;;;;;;2.17;1.98;;;;;;;;;;5095494;28;20107;-32
2023/08/12 07:44:32;;;;;;;2.42;2.22;;;;;;;;;;5095221;28;20413;-31
2023/08/12 07:46:58;;;;;;;2.22;2.08;;;;;;;;;;5095083;28;20092;-31
2023/08/12 07:49:24;;;;;;;2.25;2.15;;;;;;;;;;5095365;28;20031;-31
2023/08/12 07:51:50;;;;;;;2.78;2.58;;;;;;;;;;5095281;28;20024;-28
2023/08/12 07:54:16;;;;;;;1.90;1.80;;;;;;;;;;5095076;28;20035;-30
2023/08/12 07:56:43;;;;;;;2.08;1.98;;;;;;;;;;5095019;28;20028;-29
2023/08/12 07:59:09;;;;;;;1.95;1.80;;;;;;;;;;5095033;28;20032;-31
2023/08/12 08:01:35;;;;;;;1.85;1.75;;;;;;;;;;5095198;28;20113;-29
2023/08/12 08:04:01;;;;;;;2.50;2.33;;;;;;;;;;5095006;28;20436;-32
2023/08/12 08:06:28;;;;;;;2.50;2.30;;;;;;;;;;5094876;28;20056;-30
2023/08/12 08:08:55;;;;;;;2.38;1.65;;;;;;;;;;5095103;28;20090;-29
2023/08/12 08:11:21;;;;;;;1.70;1.60;;;;;;;;;;5095169;28;20047;-29
2023/08/12 08:13:47;;;;;;;2.00;1.90;;;;;;;;;;5094827;28;20021;-31
2023/08/12 08:16:14;;;;;;;1.80;1.60;;;;;;;;;;5095068;28;20347;-32
2023/08/12 08:18:40;;;;;;;1.65;1.55;;;;;;;;;;5095027;28;20108;-34
2023/08/12 08:21:06;;;;;;;1.85;1.75;;;;;;;;;;5094760;28;20024;-30
2023/08/12 08:23:32;;;;;;;1.85;1.75;;;;;;;;;;5094099;28;20067;-29
2023/08/12 08:25:58;;;;;;;1.92;1.83;;;;;;;;;;5094731;28;20103;-31
2023/08/12 08:28:24;;;;;;;1.90;1.80;;;;;;;;;;5094612;28;20028;-32
2023/08/12 08:30:50;;;;;;;2.00;1.90;;;;;;;;;;5094952;28;20470;-32
2023/08/12 08:33:16;;;;;;;2.03;1.92;;;;;;;;;;5094542;28;20024;-32
2023/08/12 08:35:42;;;;;;;1.63;1.52;;;;;;;;;;5094901;28;20450;-30
2023/08/12 08:38:08;;;;;;;1.70;1.60;;;;;;;;;;5094870;28;20332;-32
2023/08/12 08:40:35;;;;;;;2.22;2.10;;;;;;;;;;5094814;28;20165;-32
2023/08/12 08:43:06;;;;;;;1.85;1.75;;;;;;;;;;5094739;28;20028;-30
2023/08/12 08:45:33;;;;;;;1.83;1.73;;;;;;;;;;5093600;28;20474;-29
2023/08/12 08:48:00;;;;;;;2.47;2.28;;;;;;;;;;5094464;28;20107;-31
2023/08/12 08:50:27;;;;;;;1.80;1.60;;;;;;;;;;5094512;28;20023;-31
2023/08/12 08:52:53;;;;;;;1.58;1.55;;;;;;;;;;5094390;28;20085;-33
2023/08/12 08:55:20;;;;;;;2.03;1.92;;;;;;;;;;5094414;28;20043;-29
2023/08/12 08:57:46;;;;;;;1.88;1.77;;;;;;;;;;5094459;28;20053;-32
2023/08/12 09:00:14;;;;;;;2.15;1.95;;;;;;;;;;5094664;28;20031;-28
2023/08/12 09:02:41;;;;;;;2.05;1.95;;;;;;;;;;5094275;28;20028;-30
2023/08/12 09:05:07;;;;;;;2.00;1.90;;;;;;;;;;5094155;28;20036;-30
2023/08/12 09:07:34;;;;;;;2.08;1.98;;;;;;;;;;5094760;28;20031;-31
2023/08/12 09:10:01;;;;;;;2.58;2.38;;;;;;;;;;5094580;28;20024;-27
2023/08/12 09:12:27;;;;;;;2.03;1.92;;;;;;;;;;5094220;28;20100;-30
2023/08/12 09:14:54;;;;;;;2.22;2.10;;;;;;;;;;5094513;28;20024;-30
2023/08/12 09:17:20;;;;;;;2.00;1.90;;;;;;;;;;5094190;28;20473;-30
2023/08/12 09:19:46;;;;;;;2.38;2.20;;;;;;;;;;5094489;28;20028;-30
2023/08/12 09:22:12;;;;;;;2.03;1.92;;;;;;;;;;5094144;28;20025;-30
2023/08/12 09:24:38;;;;;;;2.00;1.85;;;;;;;;;;5094154;28;20359;-28
2023/08/12 09:27:05;;;;;;;2.47;2.28;;;;;;;;;;5094094;28;20043;-31
2023/08/12 09:29:32;;;;;;;2.08;1.98;;;;;;;;;;5094112;28;20062;-29
2023/08/12 09:32:10;;;;;;;1.75;1.65;;;;;;;;;;5094067;28;20450;-29
2023/08/12 09:34:36;;;;;;;2.13;1.90;;;;;;;;;;5094074;28;20051;-31
2023/08/12 09:37:03;;;;;;;2.10;1.90;;;;;;;;;;5097400;28;20160;-30
2023/08/12 09:39:33;;;;;;;2.00;1.90;;;;;;;;;;5097928;28;20043;-32
2023/08/12 09:42:01;;;;;;;2.05;1.95;;;;;;;;;;5097855;28;20336;-31
2023/08/12 09:44:27;;;;;;;1.92;1.83;;;;;;;;;;5097831;28;20016;-29
2023/08/12 09:46:57;;;;;;;1.83;1.73;;;;;;;;;;5097772;28;20017;-31
2023/08/12 09:49:23;;;;;;;2.10;2.00;;;;;;;;;;5097474;28;20036;-29
2023/08/12 09:51:51;;;;;;;1.90;1.80;;;;;;;;;;5097339;28;20447;-30
2023/08/12 09:54:17;;;;;;;2.10;2.00;;;;;;;;;;5097305;28;20447;-30
2023/08/12 09:56:46;;;;;;;1.67;1.58;;;;;;;;;;5097532;28;20032;-29
2023/08/12 09:59:13;;;;;;;1.88;1.77;;;;;;;;;;5096285;28;20363;-29
2023/08/12 10:01:41;;;;;;;2.00;1.85;;;;;;;;;;5097444;28;20362;-30
2023/08/12 10:04:14;;;;;;;1.88;1.77;;;;;;;;;;5096835;28;20463;-31
2023/08/12 10:06:41;;;;;;;1.67;1.58;;;;;;;;;;5097436;28;20062;-31
2023/08/12 10:09:08;;;;;;;2.10;2.00;;;;;;;;;;5097302;28;20028;-34
2023/08/12 10:11:35;;;;;;;1.92;1.83;;;;;;;;;;5096931;28;20035;-33
2023/08/12 10:14:02;;;;;;;1.95;1.85;;;;;;;;;;5096909;28;20028;-28
2023/08/12 10:16:30;;;;;;;2.08;1.98;;;;;;;;;;5096900;28;20035;-32
2023/08/12 10:18:56;;;;;;;1.63;1.52;;;;;;;;;;5097162;28;20123;-34
2023/08/12 10:21:23;;;;;;;2.00;1.90;;;;;;;;;;5096831;28;20035;-29
2023/08/12 10:23:50;;;;;;;1.90;1.80;;;;;;;;;;5096717;28;20023;-31
2023/08/12 10:26:18;;;;;;;1.80;1.70;;;;;;;;;;5096765;28;20024;-31
2023/08/12 10:28:44;;;;;;;1.70;1.60;;;;;;;;;;5096626;28;20034;-28
2023/08/12 10:31:12;;;;;;;1.63;1.52;;;;;;;;;;5096656;28;20054;-31
2023/08/12 10:33:38;;;;;;;2.00;1.90;;;;;;;;;;5096611;28;20082;-31
2023/08/12 10:36:05;;;;;;;1.85;1.75;;;;;;;;;;5096561;28;20096;-30
2023/08/12 10:38:32;;;;;;;1.77;1.67;;;;;;;;;;5096516;28;20051;-29
2023/08/12 10:41:17;;;;;;;1.90;1.80;;;;;;;;;;5096441;28;20023;-30
2023/08/12 10:43:50;;;;;;;1.77;1.67;;;;;;;;;;5096313;28;20020;-27
2023/08/12 10:46:39;;;;;;;2.10;2.00;;;;;;;;;;5096138;28;20028;-29
2023/08/12 10:49:11;;;;;;;1.92;1.83;;;;;;;;;;5088631;28;20036;-32
2023/08/12 10:51:41;;;;;;;1.50;1.40;;;;;;;;;;5096197;28;20066;-29
2023/08/12 10:54:27;;;;;;;1.92;1.83;;;;;;;;;;5096181;28;20035;-29
2023/08/12 10:57:08;;;;;;;1.52;1.42;;;;;;;;;;5096142;28;20031;-33
2023/08/12 10:59:47;;;;;;;1.65;1.55;;;;;;;;;;5096634;28;20056;-27
2023/08/12 11:02:23;;;;;;;1.60;1.50;;;;;;;;;;5096449;28;20024;-30
2023/08/12 11:04:50;;;;;;;1.60;1.50;;;;;;;;;;5094897;28;20467;-31
2023/08/12 11:07:16;;;;;;;1.83;1.73;;;;;;;;;;5096169;28;20347;-30
2023/08/12 11:09:43;;;;;;;1.92;1.83;;;;;;;;;;5095918;28;20390;-29
2023/08/12 11:12:10;;;;;;;1.98;1.88;;;;;;;;;;5095799;28;20043;-29
2023/08/12 11:14:49;;;;;;;1.67;1.58;;;;;;;;;;5095720;28;20020;-29
2023/08/12 11:17:16;;;;;;;2.20;2.10;;;;;;;;;;5095719;28;20020;-32
2023/08/12 11:19:43;;;;;;;1.38;1.35;;;;;;;;;;5095688;28;20035;-28
2023/08/12 11:22:09;;;;;;;2.10;2.00;;;;;;;;;;5095868;28;20027;-32
2023/08/12 11:24:36;;;;;;;1.30;1.30;;;;;;;;;;5095850;28;20067;-30
2023/08/12 11:27:03;;;;;;;1.95;1.85;;;;;;;;;;5095504;28;20028;-30
2023/08/12 11:29:29;;;;;;;2.10;2.00;;;;;;;;;;5095501;28;20077;-32
2023/08/12 11:31:55;;;;;;;1.40;1.40;;;;;;;;;;5095629;28;20107;-32
2023/08/12 11:34:21;;;;;;;1.92;1.83;;;;;;;;;;5095436;28;20375;-32
2023/08/12 11:36:49;;;;;;;2.13;2.03;;;;;;;;;;5095916;28;20076;-32
2023/08/12 11:39:15;;;;;;;2.30;2.10;;;;;;;;;;5094384;28;20098;-33
2023/08/12 11:41:41;;;;;;;1.90;1.80;;;;;;;;;;5095579;28;20107;-30
2023/08/12 11:44:12;;;;;;;2.47;2.38;;;;;;;;;;5095449;28;20020;-32
2023/08/12 11:46:38;;;;;;;1.83;1.73;;;;;;;;;;5095537;28;20047;-27
2023/08/12 11:49:04;;;;;;;2.03;1.92;;;;;;;;;;5095086;28;20028;-31
2023/08/12 11:51:30;;;;;;;1.83;1.73;;;;;;;;;;5095116;28;20039;-25
2023/08/12 11:53:56;;;;;;;1.60;1.50;;;;;;;;;;5095086;28;20020;-30
2023/08/12 11:56:22;;;;;;;1.50;1.50;;;;;;;;;;5095034;28;20039;-30
2023/08/12 11:58:53;;;;;;;1.50;1.40;;;;;;;;;;5094501;28;20024;-31
2023/08/12 12:01:19;;;;;;;1.20;1.20;;;;;;;;;;5095002;28;20516;-33
2023/08/12 12:03:45;;;;;;;1.33;1.33;;;;;;;;;;5094761;28;20186;-31
2023/08/12 12:06:13;;;;;;;3.03;2.83;;;;;;;;;;5094952;28;20039;-30
2023/08/12 12:08:39;;;;;;;2.03;1.92;;;;;;;;;;5094882;28;20032;-31
2023/08/12 12:11:06;;;;;;;2.20;2.10;;;;;;;;;;5094912;28;20397;-32
2023/08/12 12:13:33;;;;;;;1.75;1.65;;;;;;;;;;5094770;28;20016;-33
2023/08/12 12:15:59;;;;;;;2.00;1.90;;;;;;;;;;5094840;28;20024;-34
2023/08/12 12:18:26;;;;;;;2.17;2.08;;;;;;;;;;5095060;28;20097;-30
2023/08/12 12:20:56;;;;;;;1.52;1.42;;;;;;;;;;5094812;28;20038;-27
2023/08/12 12:23:22;;;;;;;2.20;2.10;;;;;;;;;;5094703;28;20056;-30
2023/08/12 12:25:48;;;;;;;1.85;1.75;;;;;;;;;;5095022;28;20048;-31
2023/08/12 12:28:15;;;;;;;1.90;1.80;;;;;;;;;;5094883;28;20040;-29
2023/08/12 12:30:41;;;;;;;2.17;1.98;;;;;;;;;;5094704;28;20020;-30
2023/08/12 12:33:07;;;;;;;1.67;1.58;;;;;;;;;;5094602;28;20020;-31
2023/08/12 12:35:33;;;;;;;1.85;1.75;;;;;;;;;;5095158;28;20342;-29
2023/08/12 12:37:59;;;;;;;2.03;1.92;;;;;;;;;;5094861;28;20071;-30
2023/08/12 12:40:25;;;;;;;2.33;2.22;;;;;;;;;;5094575;28;20028;-30
2023/08/12 12:42:51;;;;;;;1.95;1.85;;;;;;;;;;5094668;28;20039;-31
2023/08/12 12:45:17;;;;;;;1.35;1.35;;;;;;;;;;5094487;28;20079;-31
2023/08/12 12:47:44;;;;;;;2.30;2.20;;;;;;;;;;5094451;28;20028;-31
2023/08/12 12:50:10;;;;;;;2.17;2.08;;;;;;;;;;5094767;28;20441;-32
2023/08/12 12:52:36;;;;;;;2.00;1.90;;;;;;;;;;5093431;28;20443;-31
2023/08/12 12:55:04;;;;;;;2.13;2.03;;;;;;;;;;5094427;28;20028;-29
2023/08/12 12:57:30;;;;;;;2.38;2.28;;;;;;;;;;5094400;28;20116;-33
2023/08/12 12:59:56;;;;;;;2.28;2.17;;;;;;;;;;5094959;28;20024;-32
2023/08/12 13:02:22;;;;;;;2.17;2.08;;;;;;;;;;5094274;28;20060;-31
2023/08/12 13:04:49;;;;;;;2.00;1.90;;;;;;;;;;5094295;28;20079;-31
2023/08/12 13:07:15;;;;;;;2.15;2.05;;;;;;;;;;5094267;28;20028;-28
2023/08/12 13:09:42;;;;;;;1.92;1.83;;;;;;;;;;5095931;28;20036;-30
2023/08/12 13:12:08;;;;;;;1.92;1.83;;;;;;;;;;5098130;28;20032;-30
2023/08/12 13:14:34;;;;;;;2.15;2.05;;;;;;;;;;5098377;28;20080;-30
2023/08/12 13:17:00;;;;;;;2.40;2.30;;;;;;;;;;5098363;28;20111;-30
2023/08/12 13:19:26;;;;;;;1.92;1.83;;;;;;;;;;5098306;28;20024;-31
2023/08/12 13:21:52;;;;;;;2.03;1.92;;;;;;;;;;5097897;28;20028;-29
2023/08/12 13:24:20;;;;;;;1.95;1.85;;;;;;;;;;5098442;28;20024;-32
2023/08/12 13:26:46;;;;;;;1.95;1.83;;;;;;;;;;5097911;28;20100;-31
2023/08/12 13:29:12;;;;;;;2.08;1.98;;;;;;;;;;5097808;28;20085;-30
2023/08/12 13:31:39;;;;;;;1.92;1.83;;;;;;;;;;5098365;28;20031;-31
2023/08/12 13:34:06;;;;;;;2.30;2.20;;;;;;;;;;5098465;28;20032;-28
2023/08/12 13:36:32;;;;;;;2.85;2.75;;;;;;;;;;5097712;28;20016;-31
2023/08/12 13:38:58;;;;;;;2.00;1.90;;;;;;;;;;5097694;28;20043;-29
2023/08/12 13:41:24;;;;;;;1.73;1.63;;;;;;;;;;5097604;28;20459;-29
2023/08/12 13:43:50;;;;;;;2.20;2.10;;;;;;;;;;5097812;28;20039;-30
2023/08/12 13:46:16;;;;;;;2.30;2.20;;;;;;;;;;5097824;28;20403;-32
2023/08/12 13:48:42;;;;;;;2.42;2.22;;;;;;;;;;5097409;28;20057;-29
2023/08/12 13:51:09;;;;;;;2.20;2.10;;;;;;;;;;5097719;28;20016;-31
2023/08/12 13:53:35;;;;;;;2.33;2.22;;;;;;;;;;5097372;28;20028;-29
2023/08/12 13:56:01;;;;;;;2.28;2.17;;;;;;;;;;5097390;28;20387;-31
2023/08/12 13:58:27;;;;;;;2.42;2.33;;;;;;;;;;5097573;28;20387;-29
2023/08/12 14:00:53;;;;;;;2.22;2.13;;;;;;;;;;5097316;28;20035;-32
2023/08/12 14:03:19;;;;;;;2.50;2.40;;;;;;;;;;5096968;28;20040;-31
2023/08/12 14:05:45;;;;;;;2.30;2.20;;;;;;;;;;5097476;28;20028;-29
2023/08/12 14:08:12;;;;;;;2.10;2.00;;;;;;;;;;5097061;28;20397;-31
2023/08/12 14:10:38;;;;;;;2.70;2.58;;;;;;;;;;5097359;28;20020;-30
2023/08/12 14:13:04;;;;;;;2.83;2.67;;;;;;;;;;5096984;28;20024;-26
2023/08/12 14:15:30;;;;;;;2.22;2.13;;;;;;;;;;5097276;28;20401;-33
2023/08/12 14:17:56;;;;;;;2.58;2.47;;;;;;;;;;5097193;28;20032;-32
2023/08/12 14:20:23;;;;;;;2.28;2.17;;;;;;;;;;5096822;28;20486;-31
2023/08/12 14:22:49;;;;;;;2.33;2.22;;;;;;;;;;5095965;28;20032;-30
2023/08/12 14:25:15;;;;;;;2.38;2.28;;;;;;;;;;5097350;28;20078;-30
2023/08/12 14:27:41;;;;;;;2.50;2.38;;;;;;;;;;5096651;28;20059;-28
2023/08/12 14:30:08;;;;;;;2.55;2.45;;;;;;;;;;5096970;28;20439;-29
2023/08/12 14:32:34;;;;;;;3.05;2.85;;;;;;;;;;5096771;28;20386;-33
2023/08/12 14:35:00;;;;;;;2.40;2.30;;;;;;;;;;5096603;28;20095;-31
2023/08/12 14:37:27;;;;;;;2.85;2.67;;;;;;;;;;5096804;28;20032;-32
2023/08/12 14:39:53;;;;;;;2.53;2.42;;;;;;;;;;5096833;28;20351;-30